sensor_id;sensor_type;location;lat;lon;timestamp;P1;durP1;ratioP1;P2;durP2;ratioP2
18166;SDS011;9208;42.688;23.404;2023-06-24T00:01:48;11.80;;;10.70;;
18166;SDS011;9208;42.688;23.404;2023-06-24T00:04:13;11.57;;;10.57;;
18166;SDS011;9208;42.688;23.404;2023-06-24T00:06:40;11.57;;;10.50;;
18166;SDS011;9208;42.688;23.404;2023-06-24T00:09:05;11.00;;;9.70;;
18166;SDS011;9208;42.688;23.404;2023-06-24T00:11:32;10.93;;;9.93;;
18166;SDS011;9208;42.688;23.404;2023-06-24T00:13:59;10.63;;;9.47;;
18166;SDS011;9208;42.688;23.404;2023-06-24T00:16:24;11.37;;;10.37;;
18166;SDS011;9208;42.688;23.404;2023-06-24T00:18:53;10.77;;;9.70;;
18166;SDS011;9208;42.688;23.404;2023-06-24T00:21:23;10.90;;;9.90;;
18166;SDS011;9208;42.688;23.404;2023-06-24T00:23:54;11.30;;;10.20;;
18166;SDS011;9208;42.688;23.404;2023-06-24T00:26:23;10.77;;;9.87;;
18166;SDS011;9208;42.688;23.404;2023-06-24T00:28:49;11.27;;;10.27;;
18166;SDS011;9208;42.688;23.404;2023-06-24T00:31:14;10.87;;;9.77;;
18166;SDS011;9208;42.688;23.404;2023-06-24T00:33:40;11.27;;;10.27;;
18166;SDS011;9208;42.688;23.404;2023-06-24T00:36:05;11.00;;;9.90;;
18166;SDS011;9208;42.688;23.404;2023-06-24T00:38:36;10.90;;;9.90;;
18166;SDS011;9208;42.688;23.404;2023-06-24T00:41:03;11.10;;;10.10;;
18166;SDS011;9208;42.688;23.404;2023-06-24T00:43:29;11.30;;;10.20;;
18166;SDS011;9208;42.688;23.404;2023-06-24T00:45:55;10.33;;;9.43;;
18166;SDS011;9208;42.688;23.404;2023-06-24T00:48:21;10.57;;;9.57;;
18166;SDS011;9208;42.688;23.404;2023-06-24T00:50:46;11.13;;;10.10;;
18166;SDS011;9208;42.688;23.404;2023-06-24T00:53:14;10.50;;;9.60;;
18166;SDS011;9208;42.688;23.404;2023-06-24T00:55:40;11.73;;;10.53;;
18166;SDS011;9208;42.688;23.404;2023-06-24T00:58:06;11.23;;;10.30;;
18166;SDS011;9208;42.688;23.404;2023-06-24T01:00:32;11.33;;;10.23;;
18166;SDS011;9208;42.688;23.404;2023-06-24T01:02:59;11.73;;;10.17;;
18166;SDS011;9208;42.688;23.404;2023-06-24T01:05:25;10.60;;;9.60;;
18166;SDS011;9208;42.688;23.404;2023-06-24T01:07:53;10.53;;;9.57;;
18166;SDS011;9208;42.688;23.404;2023-06-24T01:10:21;10.70;;;9.70;;
18166;SDS011;9208;42.688;23.404;2023-06-24T01:12:48;11.17;;;10.17;;
18166;SDS011;9208;42.688;23.404;2023-06-24T01:15:14;11.07;;;9.63;;
18166;SDS011;9208;42.688;23.404;2023-06-24T01:20:33;10.63;;;9.67;;
18166;SDS011;9208;42.688;23.404;2023-06-24T01:26:00;10.20;;;9.20;;
18166;SDS011;9208;42.688;23.404;2023-06-24T01:28:58;9.77;;;8.87;;
18166;SDS011;9208;42.688;23.404;2023-06-24T01:31:37;10.73;;;9.83;;
18166;SDS011;9208;42.688;23.404;2023-06-24T01:36:56;10.10;;;9.10;;
18166;SDS011;9208;42.688;23.404;2023-06-24T01:39:29;10.47;;;9.37;;
18166;SDS011;9208;42.688;23.404;2023-06-24T01:41:59;9.50;;;8.67;;
18166;SDS011;9208;42.688;23.404;2023-06-24T01:44:31;10.17;;;9.20;;
18166;SDS011;9208;42.688;23.404;2023-06-24T01:46:57;11.20;;;10.20;;
18166;SDS011;9208;42.688;23.404;2023-06-24T01:49:24;10.73;;;9.77;;
18166;SDS011;9208;42.688;23.404;2023-06-24T01:51:55;10.77;;;9.67;;
18166;SDS011;9208;42.688;23.404;2023-06-24T01:54:23;10.60;;;9.60;;
18166;SDS011;9208;42.688;23.404;2023-06-24T01:56:51;10.37;;;9.37;;
18166;SDS011;9208;42.688;23.404;2023-06-24T01:59:20;11.73;;;9.57;;
18166;SDS011;9208;42.688;23.404;2023-06-24T02:01:47;10.40;;;9.40;;
18166;SDS011;9208;42.688;23.404;2023-06-24T02:04:16;9.93;;;9.13;;
18166;SDS011;9208;42.688;23.404;2023-06-24T02:06:43;10.90;;;9.90;;
18166;SDS011;9208;42.688;23.404;2023-06-24T02:09:11;9.93;;;9.07;;
18166;SDS011;9208;42.688;23.404;2023-06-24T02:11:40;9.93;;;9.07;;
18166;SDS011;9208;42.688;23.404;2023-06-24T02:14:07;10.20;;;9.40;;
18166;SDS011;9208;42.688;23.404;2023-06-24T02:16:34;10.03;;;9.13;;
18166;SDS011;9208;42.688;23.404;2023-06-24T02:19:01;10.53;;;9.60;;
18166;SDS011;9208;42.688;23.404;2023-06-24T02:21:29;10.00;;;9.20;;
18166;SDS011;9208;42.688;23.404;2023-06-24T02:23:55;10.30;;;9.40;;
18166;SDS011;9208;42.688;23.404;2023-06-24T02:26:22;11.00;;;9.90;;
18166;SDS011;9208;42.688;23.404;2023-06-24T02:28:48;10.70;;;9.70;;
18166;SDS011;9208;42.688;23.404;2023-06-24T02:31:15;10.57;;;9.57;;
18166;SDS011;9208;42.688;23.404;2023-06-24T02:33:41;10.83;;;9.83;;
18166;SDS011;9208;42.688;23.404;2023-06-24T02:36:09;11.30;;;10.30;;
18166;SDS011;9208;42.688;23.404;2023-06-24T02:38:36;12.07;;;11.00;;
18166;SDS011;9208;42.688;23.404;2023-06-24T02:41:01;11.10;;;10.10;;
18166;SDS011;9208;42.688;23.404;2023-06-24T02:43:29;10.87;;;9.87;;
18166;SDS011;9208;42.688;23.404;2023-06-24T02:45:55;12.60;;;10.10;;
18166;SDS011;9208;42.688;23.404;2023-06-24T02:48:22;10.57;;;9.53;;
18166;SDS011;9208;42.688;23.404;2023-06-24T02:50:49;10.80;;;9.90;;
18166;SDS011;9208;42.688;23.404;2023-06-24T02:53:15;11.00;;;10.00;;
18166;SDS011;9208;42.688;23.404;2023-06-24T02:55:41;11.37;;;10.27;;
18166;SDS011;9208;42.688;23.404;2023-06-24T02:58:08;11.77;;;10.60;;
18166;SDS011;9208;42.688;23.404;2023-06-24T03:00:35;13.40;;;11.93;;
18166;SDS011;9208;42.688;23.404;2023-06-24T03:03:02;12.83;;;11.63;;
18166;SDS011;9208;42.688;23.404;2023-06-24T03:05:30;12.37;;;11.13;;
18166;SDS011;9208;42.688;23.404;2023-06-24T03:07:58;12.53;;;11.23;;
18166;SDS011;9208;42.688;23.404;2023-06-24T03:10:24;14.30;;;12.90;;
18166;SDS011;9208;42.688;23.404;2023-06-24T03:12:50;14.13;;;12.80;;
18166;SDS011;9208;42.688;23.404;2023-06-24T03:15:16;15.67;;;12.70;;
18166;SDS011;9208;42.688;23.404;2023-06-24T03:17:41;13.43;;;12.13;;
18166;SDS011;9208;42.688;23.404;2023-06-24T03:20:07;15.40;;;13.80;;
18166;SDS011;9208;42.688;23.404;2023-06-24T03:22:33;14.17;;;12.77;;
18166;SDS011;9208;42.688;23.404;2023-06-24T03:24:59;14.20;;;12.83;;
18166;SDS011;9208;42.688;23.404;2023-06-24T03:27:24;13.60;;;12.37;;
18166;SDS011;9208;42.688;23.404;2023-06-24T03:29:50;13.90;;;12.50;;
18166;SDS011;9208;42.688;23.404;2023-06-24T03:32:15;14.47;;;12.97;;
18166;SDS011;9208;42.688;23.404;2023-06-24T03:34:41;13.60;;;12.30;;
18166;SDS011;9208;42.688;23.404;2023-06-24T03:37:06;13.27;;;12.00;;
18166;SDS011;9208;42.688;23.404;2023-06-24T03:39:32;13.73;;;12.30;;
18166;SDS011;9208;42.688;23.404;2023-06-24T03:41:57;12.90;;;11.57;;
18166;SDS011;9208;42.688;23.404;2023-06-24T03:44:23;13.87;;;12.43;;
18166;SDS011;9208;42.688;23.404;2023-06-24T03:46:48;14.10;;;12.67;;
18166;SDS011;9208;42.688;23.404;2023-06-24T03:49:14;13.07;;;11.87;;
18166;SDS011;9208;42.688;23.404;2023-06-24T03:51:39;12.27;;;11.10;;
18166;SDS011;9208;42.688;23.404;2023-06-24T03:54:04;13.43;;;12.07;;
18166;SDS011;9208;42.688;23.404;2023-06-24T03:56:30;15.43;;;12.70;;
18166;SDS011;9208;42.688;23.404;2023-06-24T03:58:55;14.47;;;12.97;;
18166;SDS011;9208;42.688;23.404;2023-06-24T04:01:21;14.00;;;12.63;;
18166;SDS011;9208;42.688;23.404;2023-06-24T04:03:46;13.90;;;12.70;;
18166;SDS011;9208;42.688;23.404;2023-06-24T04:06:12;14.17;;;12.77;;
18166;SDS011;9208;42.688;23.404;2023-06-24T04:08:38;14.27;;;12.67;;
18166;SDS011;9208;42.688;23.404;2023-06-24T04:11:08;14.60;;;13.13;;
18166;SDS011;9208;42.688;23.404;2023-06-24T04:13:34;13.37;;;12.00;;
18166;SDS011;9208;42.688;23.404;2023-06-24T04:16:00;15.27;;;13.73;;
18166;SDS011;9208;42.688;23.404;2023-06-24T04:18:25;15.00;;;12.77;;
18166;SDS011;9208;42.688;23.404;2023-06-24T04:20:51;15.67;;;14.10;;
18166;SDS011;9208;42.688;23.404;2023-06-24T04:23:16;14.97;;;13.57;;
18166;SDS011;9208;42.688;23.404;2023-06-24T04:25:44;15.03;;;13.53;;
18166;SDS011;9208;42.688;23.404;2023-06-24T04:28:10;14.07;;;12.70;;
18166;SDS011;9208;42.688;23.404;2023-06-24T04:30:35;14.23;;;12.83;;
18166;SDS011;9208;42.688;23.404;2023-06-24T04:33:03;13.93;;;12.73;;
18166;SDS011;9208;42.688;23.404;2023-06-24T04:35:29;14.63;;;13.33;;
18166;SDS011;9208;42.688;23.404;2023-06-24T04:37:55;14.73;;;13.00;;
18166;SDS011;9208;42.688;23.404;2023-06-24T04:40:20;14.63;;;13.23;;
18166;SDS011;9208;42.688;23.404;2023-06-24T04:42:46;14.40;;;12.90;;
18166;SDS011;9208;42.688;23.404;2023-06-24T04:45:11;17.10;;;13.53;;
18166;SDS011;9208;42.688;23.404;2023-06-24T04:47:36;14.10;;;12.80;;
18166;SDS011;9208;42.688;23.404;2023-06-24T04:50:02;13.40;;;12.20;;
18166;SDS011;9208;42.688;23.404;2023-06-24T04:52:28;13.67;;;12.27;;
18166;SDS011;9208;42.688;23.404;2023-06-24T04:54:54;14.60;;;13.10;;
18166;SDS011;9208;42.688;23.404;2023-06-24T04:57:37;14.37;;;12.73;;
18166;SDS011;9208;42.688;23.404;2023-06-24T05:00:02;13.07;;;11.73;;
18166;SDS011;9208;42.688;23.404;2023-06-24T05:02:29;13.50;;;12.07;;
18166;SDS011;9208;42.688;23.404;2023-06-24T05:04:58;13.77;;;12.20;;
18166;SDS011;9208;42.688;23.404;2023-06-24T05:07:23;13.10;;;11.80;;
18166;SDS011;9208;42.688;23.404;2023-06-24T05:09:49;17.07;;;12.60;;
18166;SDS011;9208;42.688;23.404;2023-06-24T05:12:16;13.90;;;12.57;;
18166;SDS011;9208;42.688;23.404;2023-06-24T05:14:41;15.73;;;14.10;;
18166;SDS011;9208;42.688;23.404;2023-06-24T05:17:07;13.73;;;12.43;;
18166;SDS011;9208;42.688;23.404;2023-06-24T05:19:32;13.60;;;12.50;;
18166;SDS011;9208;42.688;23.404;2023-06-24T05:21:58;14.70;;;13.30;;
18166;SDS011;9208;42.688;23.404;2023-06-24T05:24:24;14.20;;;12.80;;
18166;SDS011;9208;42.688;23.404;2023-06-24T05:26:49;13.43;;;12.27;;
18166;SDS011;9208;42.688;23.404;2023-06-24T05:29:16;14.40;;;13.10;;
18166;SDS011;9208;42.688;23.404;2023-06-24T05:31:42;13.30;;;12.13;;
18166;SDS011;9208;42.688;23.404;2023-06-24T05:34:08;12.40;;;11.20;;
18166;SDS011;9208;42.688;23.404;2023-06-24T05:36:34;12.73;;;11.50;;
18166;SDS011;9208;42.688;23.404;2023-06-24T05:38:59;13.70;;;12.30;;
18166;SDS011;9208;42.688;23.404;2023-06-24T05:41:25;12.73;;;11.50;;
18166;SDS011;9208;42.688;23.404;2023-06-24T05:44:00;12.23;;;11.10;;
18166;SDS011;9208;42.688;23.404;2023-06-24T05:46:27;12.07;;;11.00;;
18166;SDS011;9208;42.688;23.404;2023-06-24T05:48:52;12.23;;;11.13;;
18166;SDS011;9208;42.688;23.404;2023-06-24T05:51:17;11.13;;;9.93;;
18166;SDS011;9208;42.688;23.404;2023-06-24T05:53:43;11.90;;;10.70;;
18166;SDS011;9208;42.688;23.404;2023-06-24T05:56:09;12.47;;;11.30;;
18166;SDS011;9208;42.688;23.404;2023-06-24T05:58:34;11.97;;;11.00;;
18166;SDS011;9208;42.688;23.404;2023-06-24T06:00:59;11.93;;;10.83;;
18166;SDS011;9208;42.688;23.404;2023-06-24T06:03:26;12.30;;;11.10;;
18166;SDS011;9208;42.688;23.404;2023-06-24T06:05:51;11.40;;;10.13;;
18166;SDS011;9208;42.688;23.404;2023-06-24T06:08:17;13.13;;;11.03;;
18166;SDS011;9208;42.688;23.404;2023-06-24T06:10:42;11.83;;;10.73;;
18166;SDS011;9208;42.688;23.404;2023-06-24T06:13:07;12.00;;;10.83;;
18166;SDS011;9208;42.688;23.404;2023-06-24T06:15:33;11.70;;;10.47;;
18166;SDS011;9208;42.688;23.404;2023-06-24T06:17:58;11.87;;;10.77;;
18166;SDS011;9208;42.688;23.404;2023-06-24T06:20:24;11.43;;;10.43;;
18166;SDS011;9208;42.688;23.404;2023-06-24T06:22:49;16.50;;;10.87;;
18166;SDS011;9208;42.688;23.404;2023-06-24T06:25:16;12.47;;;11.27;;
18166;SDS011;9208;42.688;23.404;2023-06-24T06:27:41;12.13;;;11.03;;
18166;SDS011;9208;42.688;23.404;2023-06-24T06:30:07;12.07;;;10.97;;
18166;SDS011;9208;42.688;23.404;2023-06-24T06:32:33;11.70;;;10.60;;
18166;SDS011;9208;42.688;23.404;2023-06-24T06:34:58;12.03;;;10.93;;
18166;SDS011;9208;42.688;23.404;2023-06-24T06:37:24;11.60;;;10.60;;
18166;SDS011;9208;42.688;23.404;2023-06-24T06:39:49;11.90;;;10.80;;
18166;SDS011;9208;42.688;23.404;2023-06-24T06:42:15;11.13;;;10.00;;
18166;SDS011;9208;42.688;23.404;2023-06-24T06:44:40;11.27;;;10.17;;
18166;SDS011;9208;42.688;23.404;2023-06-24T06:47:06;12.47;;;10.57;;
18166;SDS011;9208;42.688;23.404;2023-06-24T06:49:32;11.07;;;10.00;;
18166;SDS011;9208;42.688;23.404;2023-06-24T06:51:57;11.23;;;10.07;;
18166;SDS011;9208;42.688;23.404;2023-06-24T06:54:23;11.73;;;10.60;;
18166;SDS011;9208;42.688;23.404;2023-06-24T06:56:48;10.73;;;9.83;;
18166;SDS011;9208;42.688;23.404;2023-06-24T06:59:14;10.57;;;9.67;;
18166;SDS011;9208;42.688;23.404;2023-06-24T07:01:39;9.90;;;9.10;;
18166;SDS011;9208;42.688;23.404;2023-06-24T07:04:04;11.03;;;10.03;;
18166;SDS011;9208;42.688;23.404;2023-06-24T07:06:30;11.53;;;10.43;;
18166;SDS011;9208;42.688;23.404;2023-06-24T07:08:57;10.60;;;9.60;;
18166;SDS011;9208;42.688;23.404;2023-06-24T07:11:23;11.07;;;10.07;;
18166;SDS011;9208;42.688;23.404;2023-06-24T07:13:48;10.80;;;9.90;;
18166;SDS011;9208;42.688;23.404;2023-06-24T07:16:16;10.67;;;9.57;;
18166;SDS011;9208;42.688;23.404;2023-06-24T07:18:42;11.23;;;10.00;;
18166;SDS011;9208;42.688;23.404;2023-06-24T07:21:07;10.40;;;9.40;;
18166;SDS011;9208;42.688;23.404;2023-06-24T07:23:33;10.30;;;9.33;;
18166;SDS011;9208;42.688;23.404;2023-06-24T07:25:58;11.00;;;9.90;;
18166;SDS011;9208;42.688;23.404;2023-06-24T07:28:24;10.93;;;9.93;;
18166;SDS011;9208;42.688;23.404;2023-06-24T07:30:49;11.23;;;9.37;;
18166;SDS011;9208;42.688;23.404;2023-06-24T07:33:14;9.53;;;8.73;;
18166;SDS011;9208;42.688;23.404;2023-06-24T07:35:40;14.33;;;10.33;;
18166;SDS011;9208;42.688;23.404;2023-06-24T07:38:05;11.20;;;9.77;;
18166;SDS011;9208;42.688;23.404;2023-06-24T07:40:31;10.67;;;9.83;;
18166;SDS011;9208;42.688;23.404;2023-06-24T07:42:56;10.80;;;9.73;;
18166;SDS011;9208;42.688;23.404;2023-06-24T07:45:22;9.63;;;8.73;;
18166;SDS011;9208;42.688;23.404;2023-06-24T07:47:48;10.13;;;9.33;;
18166;SDS011;9208;42.688;23.404;2023-06-24T07:50:13;9.70;;;8.80;;
18166;SDS011;9208;42.688;23.404;2023-06-24T07:52:39;9.87;;;9.07;;
18166;SDS011;9208;42.688;23.404;2023-06-24T07:55:04;9.90;;;9.07;;
18166;SDS011;9208;42.688;23.404;2023-06-24T07:57:31;11.40;;;10.30;;
18166;SDS011;9208;42.688;23.404;2023-06-24T07:59:56;10.40;;;9.40;;
18166;SDS011;9208;42.688;23.404;2023-06-24T08:02:22;10.63;;;9.53;;
18166;SDS011;9208;42.688;23.404;2023-06-24T08:04:49;10.80;;;9.90;;
18166;SDS011;9208;42.688;23.404;2023-06-24T08:07:15;10.43;;;9.17;;
18166;SDS011;9208;42.688;23.404;2023-06-24T08:09:40;10.67;;;9.80;;
18166;SDS011;9208;42.688;23.404;2023-06-24T08:12:06;11.80;;;10.13;;
18166;SDS011;9208;42.688;23.404;2023-06-24T08:14:32;11.33;;;9.20;;
18166;SDS011;9208;42.688;23.404;2023-06-24T08:16:57;11.70;;;9.97;;
18166;SDS011;9208;42.688;23.404;2023-06-24T08:19:23;11.03;;;10.03;;
18166;SDS011;9208;42.688;23.404;2023-06-24T08:21:49;11.50;;;10.40;;
18166;SDS011;9208;42.688;23.404;2023-06-24T08:24:14;10.80;;;9.77;;
18166;SDS011;9208;42.688;23.404;2023-06-24T08:26:39;10.53;;;9.70;;
18166;SDS011;9208;42.688;23.404;2023-06-24T08:29:05;10.97;;;10.07;;
18166;SDS011;9208;42.688;23.404;2023-06-24T08:31:32;10.20;;;9.23;;
18166;SDS011;9208;42.688;23.404;2023-06-24T08:34:00;9.70;;;8.90;;
18166;SDS011;9208;42.688;23.404;2023-06-24T08:36:35;9.93;;;8.93;;
18166;SDS011;9208;42.688;23.404;2023-06-24T08:39:02;10.50;;;9.37;;
18166;SDS011;9208;42.688;23.404;2023-06-24T08:41:28;9.60;;;8.80;;
18166;SDS011;9208;42.688;23.404;2023-06-24T08:43:53;10.23;;;9.20;;
18166;SDS011;9208;42.688;23.404;2023-06-24T08:46:19;9.37;;;8.57;;
18166;SDS011;9208;42.688;23.404;2023-06-24T08:48:46;9.90;;;9.10;;
18166;SDS011;9208;42.688;23.404;2023-06-24T08:51:14;10.27;;;9.37;;
18166;SDS011;9208;42.688;23.404;2023-06-24T08:53:43;9.90;;;9.00;;
18166;SDS011;9208;42.688;23.404;2023-06-24T08:56:09;10.03;;;9.23;;
18166;SDS011;9208;42.688;23.404;2023-06-24T08:58:35;10.00;;;9.20;;
18166;SDS011;9208;42.688;23.404;2023-06-24T09:01:01;10.37;;;9.40;;
18166;SDS011;9208;42.688;23.404;2023-06-24T09:03:28;10.17;;;9.27;;
18166;SDS011;9208;42.688;23.404;2023-06-24T09:05:54;9.70;;;8.63;;
18166;SDS011;9208;42.688;23.404;2023-06-24T09:08:20;9.63;;;8.83;;
18166;SDS011;9208;42.688;23.404;2023-06-24T09:10:47;10.50;;;9.47;;
18166;SDS011;9208;42.688;23.404;2023-06-24T09:13:18;10.67;;;9.60;;
18166;SDS011;9208;42.688;23.404;2023-06-24T09:15:44;11.70;;;9.60;;
18166;SDS011;9208;42.688;23.404;2023-06-24T09:18:09;10.70;;;9.80;;
18166;SDS011;9208;42.688;23.404;2023-06-24T09:20:35;9.80;;;8.90;;
18166;SDS011;9208;42.688;23.404;2023-06-24T09:23:09;10.83;;;9.80;;
18166;SDS011;9208;42.688;23.404;2023-06-24T09:25:35;10.30;;;9.40;;
18166;SDS011;9208;42.688;23.404;2023-06-24T09:28:01;10.27;;;9.47;;
18166;SDS011;9208;42.688;23.404;2023-06-24T09:30:27;10.40;;;9.50;;
18166;SDS011;9208;42.688;23.404;2023-06-24T09:32:54;9.80;;;9.00;;
18166;SDS011;9208;42.688;23.404;2023-06-24T09:35:20;10.57;;;9.77;;
18166;SDS011;9208;42.688;23.404;2023-06-24T09:37:50;10.40;;;9.40;;
18166;SDS011;9208;42.688;23.404;2023-06-24T09:40:20;10.27;;;9.27;;
18166;SDS011;9208;42.688;23.404;2023-06-24T09:42:55;10.47;;;9.47;;
18166;SDS011;9208;42.688;23.404;2023-06-24T09:45:23;10.50;;;9.53;;
18166;SDS011;9208;42.688;23.404;2023-06-24T09:47:53;10.63;;;9.63;;
18166;SDS011;9208;42.688;23.404;2023-06-24T09:50:19;11.00;;;9.80;;
18166;SDS011;9208;42.688;23.404;2023-06-24T09:52:45;10.63;;;9.63;;
18166;SDS011;9208;42.688;23.404;2023-06-24T09:55:15;12.77;;;9.80;;
18166;SDS011;9208;42.688;23.404;2023-06-24T09:57:45;10.10;;;9.10;;
18166;SDS011;9208;42.688;23.404;2023-06-24T10:00:13;12.50;;;9.80;;
18166;SDS011;9208;42.688;23.404;2023-06-24T10:02:42;10.33;;;9.03;;
18166;SDS011;9208;42.688;23.404;2023-06-24T10:05:09;9.47;;;8.60;;
18166;SDS011;9208;42.688;23.404;2023-06-24T10:07:35;9.10;;;8.30;;
18166;SDS011;9208;42.688;23.404;2023-06-24T10:10:04;9.80;;;9.07;;
18166;SDS011;9208;42.688;23.404;2023-06-24T10:12:31;9.13;;;8.43;;
18166;SDS011;9208;42.688;23.404;2023-06-24T10:14:57;9.33;;;8.63;;
18166;SDS011;9208;42.688;23.404;2023-06-24T10:17:24;9.60;;;8.80;;
18166;SDS011;9208;42.688;23.404;2023-06-24T10:19:51;9.67;;;8.83;;
18166;SDS011;9208;42.688;23.404;2023-06-24T10:22:18;9.68;;;8.77;;
18166;SDS011;9208;42.688;23.404;2023-06-24T10:24:47;10.07;;;9.17;;
18166;SDS011;9208;42.688;23.404;2023-06-24T10:27:14;9.20;;;8.27;;
18166;SDS011;9208;42.688;23.404;2023-06-24T10:29:44;9.23;;;8.43;;
18166;SDS011;9208;42.688;23.404;2023-06-24T10:32:11;9.80;;;8.70;;
18166;SDS011;9208;42.688;23.404;2023-06-24T10:37:10;9.17;;;8.37;;
18166;SDS011;9208;42.688;23.404;2023-06-24T10:47:35;9.20;;;8.30;;
18166;SDS011;9208;42.688;23.404;2023-06-24T10:50:03;8.37;;;7.53;;
18166;SDS011;9208;42.688;23.404;2023-06-24T10:52:29;7.57;;;6.97;;
18166;SDS011;9208;42.688;23.404;2023-06-24T10:54:57;8.60;;;7.70;;
18166;SDS011;9208;42.688;23.404;2023-06-24T10:57:25;8.32;;;7.07;;
18166;SDS011;9208;42.688;23.404;2023-06-24T10:59:52;7.60;;;6.90;;
18166;SDS011;9208;42.688;23.404;2023-06-24T11:02:20;7.75;;;7.00;;
18166;SDS011;9208;42.688;23.404;2023-06-24T11:04:53;7.55;;;6.85;;
18166;SDS011;9208;42.688;23.404;2023-06-24T11:07:21;7.53;;;6.93;;
18166;SDS011;9208;42.688;23.404;2023-06-24T11:09:49;8.07;;;7.18;;
18166;SDS011;9208;42.688;23.404;2023-06-24T11:12:16;7.57;;;6.43;;
18166;SDS011;9208;42.688;23.404;2023-06-24T11:14:41;6.30;;;5.70;;
18166;SDS011;9208;42.688;23.404;2023-06-24T11:17:07;5.65;;;5.25;;
18166;SDS011;9208;42.688;23.404;2023-06-24T11:19:32;6.25;;;5.65;;
18166;SDS011;9208;42.688;23.404;2023-06-24T11:21:59;8.32;;;7.38;;
18166;SDS011;9208;42.688;23.404;2023-06-24T11:24:26;8.90;;;6.35;;
18166;SDS011;9208;42.688;23.404;2023-06-24T11:26:54;7.30;;;6.60;;
18166;SDS011;9208;42.688;23.404;2023-06-24T11:29:20;7.03;;;6.47;;
18166;SDS011;9208;42.688;23.404;2023-06-24T11:31:46;6.38;;;5.82;;
18166;SDS011;9208;42.688;23.404;2023-06-24T11:34:11;7.75;;;7.07;;
18166;SDS011;9208;42.688;23.404;2023-06-24T11:36:37;6.80;;;6.20;;
18166;SDS011;9208;42.688;23.404;2023-06-24T11:39:03;7.47;;;6.78;;
18166;SDS011;9208;42.688;23.404;2023-06-24T11:41:28;7.03;;;6.50;;
18166;SDS011;9208;42.688;23.404;2023-06-24T11:43:54;7.65;;;6.95;;
18166;SDS011;9208;42.688;23.404;2023-06-24T11:46:25;7.43;;;6.72;;
18166;SDS011;9208;42.688;23.404;2023-06-24T11:49:08;7.35;;;6.75;;
18166;SDS011;9208;42.688;23.404;2023-06-24T11:51:35;9.10;;;8.38;;
18166;SDS011;9208;42.688;23.404;2023-06-24T11:54:04;7.35;;;6.72;;
18166;SDS011;9208;42.688;23.404;2023-06-24T11:56:40;7.78;;;7.13;;
18166;SDS011;9208;42.688;23.404;2023-06-24T11:59:07;8.05;;;7.03;;
18166;SDS011;9208;42.688;23.404;2023-06-24T12:01:42;8.23;;;7.10;;
18166;SDS011;9208;42.688;23.404;2023-06-24T12:06:38;7.88;;;6.97;;
18166;SDS011;9208;42.688;23.404;2023-06-24T12:09:04;7.93;;;7.10;;
18166;SDS011;9208;42.688;23.404;2023-06-24T12:11:30;7.95;;;7.25;;
18166;SDS011;9208;42.688;23.404;2023-06-24T12:13:55;7.78;;;7.07;;
18166;SDS011;9208;42.688;23.404;2023-06-24T12:16:20;7.75;;;6.95;;
18166;SDS011;9208;42.688;23.404;2023-06-24T12:18:48;9.15;;;6.90;;
18166;SDS011;9208;42.688;23.404;2023-06-24T12:21:13;10.32;;;7.05;;
18166;SDS011;9208;42.688;23.404;2023-06-24T12:23:39;7.22;;;6.57;;
18166;SDS011;9208;42.688;23.404;2023-06-24T12:26:06;7.57;;;6.88;;
18166;SDS011;9208;42.688;23.404;2023-06-24T12:28:31;7.45;;;6.85;;
18166;SDS011;9208;42.688;23.404;2023-06-24T12:30:57;7.63;;;6.93;;
18166;SDS011;9208;42.688;23.404;2023-06-24T12:33:22;7.90;;;7.30;;
18166;SDS011;9208;42.688;23.404;2023-06-24T12:35:48;8.23;;;7.40;;
18166;SDS011;9208;42.688;23.404;2023-06-24T12:38:13;8.02;;;7.40;;
18166;SDS011;9208;42.688;23.404;2023-06-24T12:40:39;8.82;;;7.88;;
18166;SDS011;9208;42.688;23.404;2023-06-24T12:43:04;6.80;;;6.30;;
18166;SDS011;9208;42.688;23.404;2023-06-24T12:45:30;7.22;;;6.60;;
18166;SDS011;9208;42.688;23.404;2023-06-24T12:47:55;8.07;;;7.30;;
18166;SDS011;9208;42.688;23.404;2023-06-24T12:50:21;8.07;;;7.38;;
18166;SDS011;9208;42.688;23.404;2023-06-24T12:52:46;8.05;;;6.70;;
18166;SDS011;9208;42.688;23.404;2023-06-24T12:55:12;9.85;;;7.80;;
18166;SDS011;9208;42.688;23.404;2023-06-24T12:57:37;7.70;;;7.00;;
18166;SDS011;9208;42.688;23.404;2023-06-24T13:00:04;8.57;;;7.28;;
18166;SDS011;9208;42.688;23.404;2023-06-24T13:02:30;8.82;;;7.38;;
18166;SDS011;9208;42.688;23.404;2023-06-24T13:04:59;8.02;;;7.30;;
18166;SDS011;9208;42.688;23.404;2023-06-24T13:07:24;7.72;;;7.05;;
18166;SDS011;9208;42.688;23.404;2023-06-24T13:09:50;8.27;;;7.50;;
18166;SDS011;9208;42.688;23.404;2023-06-24T13:12:15;8.50;;;7.70;;
18166;SDS011;9208;42.688;23.404;2023-06-24T13:14:41;9.63;;;7.38;;
18166;SDS011;9208;42.688;23.404;2023-06-24T13:17:06;8.88;;;8.07;;
18166;SDS011;9208;42.688;23.404;2023-06-24T13:19:32;9.65;;;7.40;;
18166;SDS011;9208;42.688;23.404;2023-06-24T13:21:58;7.75;;;6.97;;
18166;SDS011;9208;42.688;23.404;2023-06-24T13:24:24;7.95;;;7.32;;
18166;SDS011;9208;42.688;23.404;2023-06-24T13:26:50;7.82;;;7.13;;
18166;SDS011;9208;42.688;23.404;2023-06-24T13:29:16;8.00;;;7.22;;
18166;SDS011;9208;42.688;23.404;2023-06-24T13:31:41;7.82;;;7.22;;
18166;SDS011;9208;42.688;23.404;2023-06-24T13:34:07;7.78;;;7.07;;
18166;SDS011;9208;42.688;23.404;2023-06-24T13:36:34;14.05;;;7.47;;
18166;SDS011;9208;42.688;23.404;2023-06-24T13:39:02;10.63;;;6.53;;
18166;SDS011;9208;42.688;23.404;2023-06-24T13:41:28;10.73;;;5.70;;
18166;SDS011;9208;42.688;23.404;2023-06-24T13:43:57;9.77;;;6.40;;
18166;SDS011;9208;42.688;23.404;2023-06-24T13:46:22;15.83;;;5.50;;
18166;SDS011;9208;42.688;23.404;2023-06-24T13:48:48;8.30;;;4.97;;
18166;SDS011;9208;42.688;23.404;2023-06-24T13:51:15;8.90;;;5.07;;
18166;SDS011;9208;42.688;23.404;2023-06-24T13:53:41;6.13;;;4.53;;
18166;SDS011;9208;42.688;23.404;2023-06-24T13:56:06;5.47;;;4.80;;
18166;SDS011;9208;42.688;23.404;2023-06-24T13:58:32;5.23;;;4.83;;
18166;SDS011;9208;42.688;23.404;2023-06-24T14:00:57;6.93;;;5.83;;
18166;SDS011;9208;42.688;23.404;2023-06-24T14:03:23;8.80;;;6.30;;
18166;SDS011;9208;42.688;23.404;2023-06-24T14:05:48;8.80;;;6.33;;
18166;SDS011;9208;42.688;23.404;2023-06-24T14:08:14;8.03;;;5.80;;
18166;SDS011;9208;42.688;23.404;2023-06-24T14:10:39;12.17;;;5.60;;
18166;SDS011;9208;42.688;23.404;2023-06-24T14:13:05;8.97;;;5.40;;
18166;SDS011;9208;42.688;23.404;2023-06-24T14:15:30;18.30;;;6.80;;
18166;SDS011;9208;42.688;23.404;2023-06-24T14:17:56;5.83;;;5.20;;
18166;SDS011;9208;42.688;23.404;2023-06-24T14:20:22;9.40;;;5.30;;
18166;SDS011;9208;42.688;23.404;2023-06-24T14:22:49;9.70;;;5.07;;
18166;SDS011;9208;42.688;23.404;2023-06-24T14:25:15;8.37;;;6.23;;
18166;SDS011;9208;42.688;23.404;2023-06-24T14:27:41;10.43;;;5.77;;
18166;SDS011;9208;42.688;23.404;2023-06-24T14:30:07;9.97;;;6.43;;
18166;SDS011;9208;42.688;23.404;2023-06-24T14:32:32;10.47;;;6.20;;
18166;SDS011;9208;42.688;23.404;2023-06-24T14:34:58;8.67;;;5.97;;
18166;SDS011;9208;42.688;23.404;2023-06-24T14:37:24;10.70;;;6.03;;
18166;SDS011;9208;42.688;23.404;2023-06-24T14:39:49;7.30;;;5.77;;
18166;SDS011;9208;42.688;23.404;2023-06-24T14:42:16;11.87;;;6.00;;
18166;SDS011;9208;42.688;23.404;2023-06-24T14:44:41;9.27;;;6.20;;
18166;SDS011;9208;42.688;23.404;2023-06-24T14:47:07;11.60;;;6.03;;
18166;SDS011;9208;42.688;23.404;2023-06-24T14:49:32;12.33;;;6.40;;
18166;SDS011;9208;42.688;23.404;2023-06-24T14:51:57;9.27;;;5.30;;